Kriti I — SZRD — position and weather

sailwx.info

Track history (hours):
 
Tides and Currents Weather Stations Pressure Air Temp Water Temp Dewpoint Dewpoint Depression Visibility Wind Speed Wind Dir Waves Ship Positions

Kriti I

Last reported at 2018-May-07 12:06 UTC. Time now 2018-May-20 14:11 UTC.
Position N 37°53' E 015°51'.
Warning: this ship's position is 13 days out of date.

Length 204 m; draft 6.9 m.

Type: Passenger vessel. MMSI: 237022000.

Date/timePositionNaut miles runAvg speedWind from/ knotsBaromVisibWave heightAir tempDewpointWater temp
2018-May-07 12:06N 37°53' E 015°51'219.3
2018-May-07 11:59N 37°54' E 015°48'918.3
2018-May-07 11:30N 37°58' E 015°38'1020.4
2018-May-07 11:00N 38°07' E 015°35'816.0
2018-May-07 10:30N 38°15' E 015°38'612.9
2018-May-07 10:00N 38°21' E 015°37'1020.1
2018-May-07 09:30N 38°29' E 015°28'1019.7
2018-May-07 09:00N 38°36' E 015°20'1019.8
2018-May-07 08:30N 38°44' E 015°12'87 3.0
2018-May-06 03:17N 38°48' E 013°21'620.3
2018-May-06 03:00N 38°42' E 013°23'1019.9
2018-May-06 02:30N 38°33' E 013°27'1019.4
2018-May-06 02:01N 38°24' E 013°32'1019.6
2018-May-06 01:30N 38°15' E 013°36'1019.7
2018-May-06 01:01N 38°06' E 013°41'713.2
2018-May-06 00:30N 37°59' E 013°43'0 0.7
2018-May-05 23:54N 37°59' E 013°42'0 0.0
2018-May-05 23:25N 37°59' E 013°42'0 0.0
2018-May-05 22:58N 37°59' E 013°42'0 0.0
2018-May-05 22:25N 37°59' E 013°42'0 0.0
2018-May-05 21:59N 37°59' E 013°42'0 0.0
2018-May-05 21:29N 37°59' E 013°42'0 0.4
2018-May-05 21:00N 37°59' E 013°42'510.5
2018-May-05 20:30N 38°04' E 013°46'1020.4
2018-May-05 20:01N 38°14' E 013°47'1120.1
2018-May-05 19:28N 38°25' E 013°49'12119.9
2018-May-05 13:23N 40°25' E 014°07'719.6
2018-May-05 13:01N 40°33' E 014°09'1019.5
2018-May-05 12:31N 40°42' E 014°13'817.0
2018-May-05 12:01N 40°50' E 014°17'1 0.4
2018-May-05 08:52N 40°50' E 014°16'0 0.2
2018-May-05 08:30N 40°50' E 014°16'2 3.6
2018-May-05 08:00N 40°49' E 014°17'611.0
2018-May-05 07:30N 40°44' E 014°15'1020.7
2018-May-05 07:00N 40°34' E 014°10'11020.5
2018-May-05 01:40N 38°51' E 013°23'720.6
2018-May-05 01:19N 38°44' E 013°20'720.6
2018-May-05 00:59N 38°37' E 013°18'1020.6
2018-May-05 00:30N 38°27' E 013°16'918.7
2018-May-05 00:00N 38°18' E 013°19'1019.7
2018-May-04 23:30N 38°10' E 013°26'4 6.7
2018-May-04 22:58N 38°08' E 013°22'0 0.0
2018-May-04 22:28N 38°08' E 013°22'0 0.0
2018-May-04 21:58N 38°08' E 013°22'0 0.0
2018-May-04 21:29N 38°08' E 013°22'0 0.2
2018-May-04 21:00N 38°08' E 013°22'1 2.9
2018-May-04 20:30N 38°08' E 013°24'918.0
2018-May-04 20:00N 38°17' E 013°25'1019.7
2018-May-04 19:30N 38°27' E 013°24'1019.4
2018-May-04 18:58N 38°37' E 013°22'12 0.3
2018-May-03 02:59N 38°48' E 013°20'1019.6
2018-May-03 02:29N 38°39' E 013°23'1019.7
2018-May-03 02:00N 38°29' E 013°24'1019.8
2018-May-03 01:30N 38°20' E 013°25'1019.7
2018-May-03 01:00N 38°10' E 013°26'3 6.5
2018-May-03 00:29N 38°08' E 013°22'0 0.0
2018-May-02 23:59N 38°08' E 013°22'0 0.0
2018-May-02 23:29N 38°08' E 013°22'0 0.0
2018-May-02 23:00N 38°08' E 013°22'0 0.0
2018-May-02 22:30N 38°08' E 013°22'0 0.0
2018-May-02 22:00N 38°08' E 013°22'0 0.0
2018-May-02 21:28N 38°08' E 013°22'0 0.9
2018-May-02 21:00N 38°08' E 013°22'2 4.7
2018-May-02 20:30N 38°09' E 013°24'611.4
2018-May-02 20:00N 38°15' E 013°26'919.2
2018-May-02 19:31N 38°24' E 013°25'1019.7
2018-May-02 19:01N 38°34' E 013°24'16 0.4
2018-May-01 03:51N 38°50' E 013°19'720.1
2018-May-01 03:30N 38°44' E 013°23'1020.1
2018-May-01 03:00N 38°35' E 013°28'1020.0
2018-May-01 02:30N 38°26' E 013°34'1019.9
2018-May-01 02:00N 38°16' E 013°36'1019.9
2018-May-01 01:30N 38°07' E 013°41'815.5
2018-May-01 01:00N 37°59' E 013°44'1 2.0
2018-May-01 00:30N 37°59' E 013°42'0 0.0
2018-May-01 00:00N 37°59' E 013°42'0 0.0
2018-Apr-30 23:25N 37°59' E 013°42'0 0.0
2018-Apr-30 22:58N 37°59' E 013°42'0 0.0
2018-Apr-30 22:28N 37°59' E 013°42'0 0.0
2018-Apr-30 21:59N 37°59' E 013°42'0 0.0
2018-Apr-30 21:29N 37°59' E 013°42'0 0.0
2018-Apr-30 20:59N 37°59' E 013°42'0 0.0
2018-Apr-30 20:30N 37°59' E 013°42'0 0.0
2018-Apr-30 20:00N 37°59' E 013°42'0 0.0
2018-Apr-30 18:20N 37°59' E 013°42'0 0.0
2018-Apr-30 17:49N 37°59' E 013°42'0 0.0
2018-Apr-30 17:28N 37°59' E 013°42'0 0.0
2018-Apr-30 16:14N 37°59' E 013°42'0 0.0
2018-Apr-30 15:53N 37°59' E 013°42'0 0.0
2018-Apr-30 15:30N 37°59' E 013°42'0 0.0
2018-Apr-30 15:00N 37°59' E 013°42'0 0.0
2018-Apr-30 14:30N 37°59' E 013°42'0 0.0
2018-Apr-30 13:55N 37°59' E 013°42'0 0.0
2018-Apr-30 13:28N 37°59' E 013°42'0 0.0
2018-Apr-30 12:58N 37°59' E 013°42'0 0.0
2018-Apr-30 12:26N 37°59' E 013°42'0 0.0
2018-Apr-30 11:41N 37°59' E 013°42'0 0.0
2018-Apr-30 11:29N 37°59' E 013°42'0 0.0
2018-Apr-30 10:57N 37°59' E 013°42'0 0.0
2018-Apr-30 10:30N 37°59' E 013°42'0 0.0
2018-Apr-30 09:54N 37°59' E 013°42'0 0.0
2018-Apr-30 09:28N 37°59' E 013°42'0 0.0
2018-Apr-30 08:58N 37°59' E 013°42'0 0.1
2018-Apr-30 08:30N 37°59' E 013°42'2 3.7
2018-Apr-30 08:00N 38°01' E 013°44'1020.7
2018-Apr-30 07:30N 38°10' E 013°39'1020.9
2018-Apr-30 07:00N 38°20' E 013°34'1021.0
2018-Apr-30 06:31N 38°30' E 013°29'1121.0
2018-Apr-30 06:00N 38°40' E 013°24'10321.1
2018-Apr-30 01:07N 40°16' E 012°37'721.4
2018-Apr-30 00:49N 40°22' E 012°34'721.1
2018-Apr-30 00:30N 40°28' E 012°31'1121.4
2018-Apr-30 00:00N 40°38' E 012°26'112 5.6
2018-Apr-29 03:53N 38°53' E 013°18'719.6
2018-Apr-29 03:30N 38°47' E 013°21'1019.6
2018-Apr-29 03:00N 38°37' E 013°26'1019.8
2018-Apr-29 02:30N 38°28' E 013°30'1020.0
2018-Apr-29 02:00N 38°19' E 013°35'1020.3
2018-Apr-29 01:30N 38°09' E 013°39'919.0
2018-Apr-29 01:00N 38°00' E 013°44'1 2.6
2018-Apr-29 00:29N 37°59' E 013°42'0 0.0
2018-Apr-29 00:00N 37°59' E 013°42'0 0.0
2018-Apr-28 23:30N 37°59' E 013°42'0 0.0
2018-Apr-28 23:00N 37°59' E 013°42'0 0.0
2018-Apr-28 22:28N 37°59' E 013°42'0 0.3
2018-Apr-28 22:00N 37°59' E 013°42'3 6.1
2018-Apr-28 21:30N 38°02' E 013°45'1020.4
2018-Apr-28 21:00N 38°12' E 013°47'1120.2
2018-Apr-28 20:28N 38°23' E 013°49'1020.5
2018-Apr-28 19:57N 38°33' E 013°49'9020.3
2018-Apr-28 15:31N 40°02' E 014°04'020.1
2018-Apr-28 15:30N 40°03' E 014°04'1020.5
2018-Apr-28 15:00N 40°13' E 014°06'1320.6
2018-Apr-28 14:22N 40°26' E 014°08'720.5
2018-Apr-28 14:00N 40°33' E 014°09'1020.5
2018-Apr-28 13:30N 40°43' E 014°14'815.5
2018-Apr-28 13:00N 40°50' E 014°16'0 0.6
2018-Apr-28 12:30N 40°50' E 014°16'0 0.0
2018-Apr-28 11:49N 40°50' E 014°16'0 0.0
2018-Apr-28 11:19N 40°50' E 014°16'0 0.0
2018-Apr-28 10:58N 40°50' E 014°16'0 0.0
2018-Apr-28 10:23N 40°50' E 014°16'0 0.0
2018-Apr-28 09:56N 40°50' E 014°16'0 0.0
2018-Apr-28 09:29N 40°50' E 014°16'0 0.0
2018-Apr-28 08:54N 40°50' E 014°16'0 0.0
2018-Apr-28 08:31N 40°50' E 014°16'0 0.9
2018-Apr-28 08:01N 40°50' E 014°16'712.9
2018-Apr-28 07:30N 40°44' E 014°15'1020.7
2018-Apr-28 07:00N 40°34' E 014°10'1621.1
2018-Apr-28 06:16N 40°19' E 014°07'821.4
2018-Apr-28 05:55N 40°11' E 014°05'1421.3
2018-Apr-28 05:16N 39°58' E 014°03'7121.1
2018-Apr-28 01:54N 38°47' E 013°52'921.2
2018-Apr-28 01:28N 38°38' E 013°50'1021.1
2018-Apr-28 01:00N 38°28' E 013°49'1121.5
2018-Apr-28 00:30N 38°18' E 013°47'1121.1
2018-Apr-28 00:00N 38°07' E 013°45'816.1
2018-Apr-27 23:30N 37°59' E 013°43'0 0.9
2018-Apr-27 22:58N 37°59' E 013°42'0 0.0
2018-Apr-27 22:28N 37°59' E 013°42'0 0.0
2018-Apr-27 21:58N 37°59' E 013°42'0 0.0
2018-Apr-27 21:29N 37°59' E 013°42'0 0.0
2018-Apr-27 21:00N 37°59' E 013°42'2 3.1
2018-Apr-27 20:30N 37°59' E 013°44'1118.5
2018-Apr-27 19:55N 38°10' E 013°40'920.2
2018-Apr-27 19:29N 38°18' E 013°36'1120.7
2018-Apr-27 18:58N 38°28' E 013°30'1020.9
2018-Apr-27 18:30N 38°37' E 013°26'1021.1
2018-Apr-27 18:00N 38°46' E 013°21'9520.9
2018-Apr-27 13:27N 40°16' E 012°37'920.7
2018-Apr-27 13:00N 40°24' E 012°33'1020.7
2018-Apr-27 12:30N 40°34' E 012°28'  
Track history (hours):
 
Tides and Currents Weather Stations Pressure Air Temp Water Temp Dewpoint Dewpoint Depression Visibility Wind Speed Wind Dir Waves Ship Positions

Kriti I

Last reported at 2018-May-07 12:06 UTC. Time now 2018-May-20 14:11 UTC.
Position N 37°53' E 015°51'.
Warning: this ship's position is 13 days out of date.

Length 204 m; draft 6.9 m.

Type: Passenger vessel. MMSI: 237022000.

Date/timePositionNaut miles runAvg speedWind from/ knotsBaromVisibWave heightAir tempDewpointWater temp
2018-May-07 12:06N 37°53' E 015°51'219.3
2018-May-07 11:59N 37°54' E 015°48'918.3
2018-May-07 11:30N 37°58' E 015°38'1020.4
2018-May-07 11:00N 38°07' E 015°35'816.0
2018-May-07 10:30N 38°15' E 015°38'612.9
2018-May-07 10:00N 38°21' E 015°37'1020.1
2018-May-07 09:30N 38°29' E 015°28'1019.7
2018-May-07 09:00N 38°36' E 015°20'1019.8
2018-May-07 08:30N 38°44' E 015°12'87 3.0
2018-May-06 03:17N 38°48' E 013°21'620.3
2018-May-06 03:00N 38°42' E 013°23'1019.9
2018-May-06 02:30N 38°33' E 013°27'1019.4
2018-May-06 02:01N 38°24' E 013°32'1019.6
2018-May-06 01:30N 38°15' E 013°36'1019.7
2018-May-06 01:01N 38°06' E 013°41'713.2
2018-May-06 00:30N 37°59' E 013°43'0 0.7
2018-May-05 23:54N 37°59' E 013°42'0 0.0
2018-May-05 23:25N 37°59' E 013°42'0 0.0
2018-May-05 22:58N 37°59' E 013°42'0 0.0
2018-May-05 22:25N 37°59' E 013°42'0 0.0
2018-May-05 21:59N 37°59' E 013°42'0 0.0
2018-May-05 21:29N 37°59' E 013°42'0 0.4
2018-May-05 21:00N 37°59' E 013°42'510.5
2018-May-05 20:30N 38°04' E 013°46'1020.4
2018-May-05 20:01N 38°14' E 013°47'1120.1
2018-May-05 19:28N 38°25' E 013°49'12119.9
2018-May-05 13:23N 40°25' E 014°07'719.6
2018-May-05 13:01N 40°33' E 014°09'1019.5
2018-May-05 12:31N 40°42' E 014°13'817.0
2018-May-05 12:01N 40°50' E 014°17'1 0.4
2018-May-05 08:52N 40°50' E 014°16'0 0.2
2018-May-05 08:30N 40°50' E 014°16'2 3.6
2018-May-05 08:00N 40°49' E 014°17'611.0
2018-May-05 07:30N 40°44' E 014°15'1020.7
2018-May-05 07:00N 40°34' E 014°10'11020.5
2018-May-05 01:40N 38°51' E 013°23'720.6
2018-May-05 01:19N 38°44' E 013°20'720.6
2018-May-05 00:59N 38°37' E 013°18'1020.6
2018-May-05 00:30N 38°27' E 013°16'918.7
2018-May-05 00:00N 38°18' E 013°19'1019.7
2018-May-04 23:30N 38°10' E 013°26'4 6.7
2018-May-04 22:58N 38°08' E 013°22'0 0.0
2018-May-04 22:28N 38°08' E 013°22'0 0.0
2018-May-04 21:58N 38°08' E 013°22'0 0.0
2018-May-04 21:29N 38°08' E 013°22'0 0.2
2018-May-04 21:00N 38°08' E 013°22'1 2.9
2018-May-04 20:30N 38°08' E 013°24'918.0
2018-May-04 20:00N 38°17' E 013°25'1019.7
2018-May-04 19:30N 38°27' E 013°24'1019.4
2018-May-04 18:58N 38°37' E 013°22'12 0.3
2018-May-03 02:59N 38°48' E 013°20'1019.6
2018-May-03 02:29N 38°39' E 013°23'1019.7
2018-May-03 02:00N 38°29' E 013°24'1019.8
2018-May-03 01:30N 38°20' E 013°25'1019.7
2018-May-03 01:00N 38°10' E 013°26'3 6.5
2018-May-03 00:29N 38°08' E 013°22'0 0.0
2018-May-02 23:59N 38°08' E 013°22'0 0.0
2018-May-02 23:29N 38°08' E 013°22'0 0.0
2018-May-02 23:00N 38°08' E 013°22'0 0.0
2018-May-02 22:30N 38°08' E 013°22'0 0.0
2018-May-02 22:00N 38°08' E 013°22'0 0.0
2018-May-02 21:28N 38°08' E 013°22'0 0.9
2018-May-02 21:00N 38°08' E 013°22'2 4.7
2018-May-02 20:30N 38°09' E 013°24'611.4
2018-May-02 20:00N 38°15' E 013°26'919.2
2018-May-02 19:31N 38°24' E 013°25'1019.7
2018-May-02 19:01N 38°34' E 013°24'16 0.4
2018-May-01 03:51N 38°50' E 013°19'720.1
2018-May-01 03:30N 38°44' E 013°23'1020.1
2018-May-01 03:00N 38°35' E 013°28'1020.0
2018-May-01 02:30N 38°26' E 013°34'1019.9
2018-May-01 02:00N 38°16' E 013°36'1019.9
2018-May-01 01:30N 38°07' E 013°41'815.5
2018-May-01 01:00N 37°59' E 013°44'1 2.0
2018-May-01 00:30N 37°59' E 013°42'0 0.0
2018-May-01 00:00N 37°59' E 013°42'0 0.0
2018-Apr-30 23:25N 37°59' E 013°42'0 0.0
2018-Apr-30 22:58N 37°59' E 013°42'0 0.0
2018-Apr-30 22:28N 37°59' E 013°42'0 0.0
2018-Apr-30 21:59N 37°59' E 013°42'0 0.0
2018-Apr-30 21:29N 37°59' E 013°42'0 0.0
2018-Apr-30 20:59N 37°59' E 013°42'0 0.0
2018-Apr-30 20:30N 37°59' E 013°42'0 0.0
2018-Apr-30 20:00N 37°59' E 013°42'0 0.0
2018-Apr-30 18:20N 37°59' E 013°42'0 0.0
2018-Apr-30 17:49N 37°59' E 013°42'0 0.0
2018-Apr-30 17:28N 37°59' E 013°42'0 0.0
2018-Apr-30 16:14N 37°59' E 013°42'0 0.0
2018-Apr-30 15:53N 37°59' E 013°42'0 0.0
2018-Apr-30 15:30N 37°59' E 013°42'0 0.0
2018-Apr-30 15:00N 37°59' E 013°42'0 0.0
2018-Apr-30 14:30N 37°59' E 013°42'0 0.0
2018-Apr-30 13:55N 37°59' E 013°42'0 0.0
2018-Apr-30 13:28N 37°59' E 013°42'0 0.0
2018-Apr-30 12:58N 37°59' E 013°42'0 0.0
2018-Apr-30 12:26N 37°59' E 013°42'0 0.0
2018-Apr-30 11:41N 37°59' E 013°42'0 0.0
2018-Apr-30 11:29N 37°59' E 013°42'0 0.0
2018-Apr-30 10:57N 37°59' E 013°42'0 0.0
2018-Apr-30 10:30N 37°59' E 013°42'0 0.0
2018-Apr-30 09:54N 37°59' E 013°42'0 0.0
2018-Apr-30 09:28N 37°59' E 013°42'0 0.0
2018-Apr-30 08:58N 37°59' E 013°42'0 0.1
2018-Apr-30 08:30N 37°59' E 013°42'2 3.7
2018-Apr-30 08:00N 38°01' E 013°44'1020.7
2018-Apr-30 07:30N 38°10' E 013°39'1020.9
2018-Apr-30 07:00N 38°20' E 013°34'1021.0
2018-Apr-30 06:31N 38°30' E 013°29'1121.0
2018-Apr-30 06:00N 38°40' E 013°24'10321.1
2018-Apr-30 01:07N 40°16' E 012°37'721.4
2018-Apr-30 00:49N 40°22' E 012°34'721.1
2018-Apr-30 00:30N 40°28' E 012°31'1121.4
2018-Apr-30 00:00N 40°38' E 012°26'112 5.6
2018-Apr-29 03:53N 38°53' E 013°18'719.6
2018-Apr-29 03:30N 38°47' E 013°21'1019.6
2018-Apr-29 03:00N 38°37' E 013°26'1019.8
2018-Apr-29 02:30N 38°28' E 013°30'1020.0
2018-Apr-29 02:00N 38°19' E 013°35'1020.3
2018-Apr-29 01:30N 38°09' E 013°39'919.0
2018-Apr-29 01:00N 38°00' E 013°44'1 2.6
2018-Apr-29 00:29N 37°59' E 013°42'0 0.0
2018-Apr-29 00:00N 37°59' E 013°42'0 0.0
2018-Apr-28 23:30N 37°59' E 013°42'0 0.0
2018-Apr-28 23:00N 37°59' E 013°42'0 0.0
2018-Apr-28 22:28N 37°59' E 013°42'0 0.3
2018-Apr-28 22:00N 37°59' E 013°42'3 6.1
2018-Apr-28 21:30N 38°02' E 013°45'1020.4
2018-Apr-28 21:00N 38°12' E 013°47'1120.2
2018-Apr-28 20:28N 38°23' E 013°49'1020.5
2018-Apr-28 19:57N 38°33' E 013°49'9020.3
2018-Apr-28 15:31N 40°02' E 014°04'020.1
2018-Apr-28 15:30N 40°03' E 014°04'1020.5
2018-Apr-28 15:00N 40°13' E 014°06'1320.6
2018-Apr-28 14:22N 40°26' E 014°08'720.5
2018-Apr-28 14:00N 40°33' E 014°09'1020.5
2018-Apr-28 13:30N 40°43' E 014°14'815.5
2018-Apr-28 13:00N 40°50' E 014°16'0 0.6
2018-Apr-28 12:30N 40°50' E 014°16'0 0.0
2018-Apr-28 11:49N 40°50' E 014°16'0 0.0
2018-Apr-28 11:19N 40°50' E 014°16'0 0.0
2018-Apr-28 10:58N 40°50' E 014°16'0 0.0
2018-Apr-28 10:23N 40°50' E 014°16'0 0.0
2018-Apr-28 09:56N 40°50' E 014°16'0 0.0
2018-Apr-28 09:29N 40°50' E 014°16'0 0.0
2018-Apr-28 08:54N 40°50' E 014°16'0 0.0
2018-Apr-28 08:31N 40°50' E 014°16'0 0.9
2018-Apr-28 08:01N 40°50' E 014°16'712.9
2018-Apr-28 07:30N 40°44' E 014°15'1020.7
2018-Apr-28 07:00N 40°34' E 014°10'1621.1
2018-Apr-28 06:16N 40°19' E 014°07'821.4
2018-Apr-28 05:55N 40°11' E 014°05'1421.3
2018-Apr-28 05:16N 39°58' E 014°03'7121.1
2018-Apr-28 01:54N 38°47' E 013°52'921.2
2018-Apr-28 01:28N 38°38' E 013°50'1021.1
2018-Apr-28 01:00N 38°28' E 013°49'1121.5
2018-Apr-28 00:30N 38°18' E 013°47'1121.1
2018-Apr-28 00:00N 38°07' E 013°45'816.1
2018-Apr-27 23:30N 37°59' E 013°43'0 0.9
2018-Apr-27 22:58N 37°59' E 013°42'0 0.0
2018-Apr-27 22:28N 37°59' E 013°42'0 0.0
2018-Apr-27 21:58N 37°59' E 013°42'0 0.0
2018-Apr-27 21:29N 37°59' E 013°42'0 0.0
2018-Apr-27 21:00N 37°59' E 013°42'2 3.1
2018-Apr-27 20:30N 37°59' E 013°44'1118.5
2018-Apr-27 19:55N 38°10' E 013°40'920.2
2018-Apr-27 19:29N 38°18' E 013°36'1120.7
2018-Apr-27 18:58N 38°28' E 013°30'1020.9
2018-Apr-27 18:30N 38°37' E 013°26'1021.1
2018-Apr-27 18:00N 38°46' E 013°21'9520.9
2018-Apr-27 13:27N 40°16' E 012°37'920.7
2018-Apr-27 13:00N 40°24' E 012°33'1020.7
2018-Apr-27 12:30N 40°34' E 012°28'  

Dump ship's entire track history